sensor_id;sensor_type;location;lat;lon;timestamp;P1;durP1;ratioP1;P2;durP2;ratioP2
36189;SDS011;22232;50.914;13.858;2024-01-25T00:02:20;17.35;;;3.58;;
36189;SDS011;22232;50.914;13.858;2024-01-25T00:04:48;21.10;;;3.60;;
36189;SDS011;22232;50.914;13.858;2024-01-25T00:07:16;21.02;;;3.90;;
36189;SDS011;22232;50.914;13.858;2024-01-25T00:09:43;27.33;;;4.05;;
36189;SDS011;22232;50.914;13.858;2024-01-25T00:12:11;17.88;;;3.33;;
36189;SDS011;22232;50.914;13.858;2024-01-25T00:14:39;16.80;;;3.50;;
36189;SDS011;22232;50.914;13.858;2024-01-25T00:17:06;23.17;;;3.60;;
36189;SDS011;22232;50.914;13.858;2024-01-25T00:19:34;20.05;;;4.43;;
36189;SDS011;22232;50.914;13.858;2024-01-25T00:22:02;18.58;;;3.83;;
36189;SDS011;22232;50.914;13.858;2024-01-25T00:24:30;15.18;;;3.47;;
36189;SDS011;22232;50.914;13.858;2024-01-25T00:26:58;21.25;;;4.18;;
36189;SDS011;22232;50.914;13.858;2024-01-25T00:29:26;18.88;;;3.60;;
36189;SDS011;22232;50.914;13.858;2024-01-25T00:31:53;23.45;;;4.47;;
36189;SDS011;22232;50.914;13.858;2024-01-25T00:34:21;21.92;;;4.00;;
36189;SDS011;22232;50.914;13.858;2024-01-25T00:36:49;20.10;;;4.60;;
36189;SDS011;22232;50.914;13.858;2024-01-25T00:39:17;21.48;;;3.85;;
36189;SDS011;22232;50.914;13.858;2024-01-25T00:41:45;23.65;;;4.57;;
36189;SDS011;22232;50.914;13.858;2024-01-25T00:44:17;20.83;;;3.80;;
36189;SDS011;22232;50.914;13.858;2024-01-25T00:46:45;14.32;;;3.65;;
36189;SDS011;22232;50.914;13.858;2024-01-25T00:49:14;23.45;;;4.75;;
36189;SDS011;22232;50.914;13.858;2024-01-25T00:51:44;16.70;;;3.78;;
36189;SDS011;22232;50.914;13.858;2024-01-25T00:54:14;23.10;;;3.92;;
36189;SDS011;22232;50.914;13.858;2024-01-25T00:56:42;19.42;;;3.03;;
36189;SDS011;22232;50.914;13.858;2024-01-25T00:59:10;24.48;;;3.97;;
36189;SDS011;22232;50.914;13.858;2024-01-25T01:01:38;24.63;;;4.20;;
36189;SDS011;22232;50.914;13.858;2024-01-25T01:04:07;14.35;;;3.17;;
36189;SDS011;22232;50.914;13.858;2024-01-25T01:06:36;24.48;;;4.20;;
36189;SDS011;22232;50.914;13.858;2024-01-25T01:09:04;17.20;;;4.55;;
36189;SDS011;22232;50.914;13.858;2024-01-25T01:11:31;18.40;;;3.65;;
36189;SDS011;22232;50.914;13.858;2024-01-25T01:13:59;17.05;;;3.90;;
36189;SDS011;22232;50.914;13.858;2024-01-25T01:16:26;15.65;;;3.95;;
36189;SDS011;22232;50.914;13.858;2024-01-25T01:18:54;23.83;;;3.83;;
36189;SDS011;22232;50.914;13.858;2024-01-25T01:21:22;20.67;;;4.03;;
36189;SDS011;22232;50.914;13.858;2024-01-25T01:23:50;24.90;;;3.90;;
36189;SDS011;22232;50.914;13.858;2024-01-25T01:26:18;17.77;;;3.55;;
36189;SDS011;22232;50.914;13.858;2024-01-25T01:28:45;13.73;;;3.55;;
36189;SDS011;22232;50.914;13.858;2024-01-25T01:31:13;24.70;;;4.05;;
36189;SDS011;22232;50.914;13.858;2024-01-25T01:33:41;21.63;;;4.50;;
36189;SDS011;22232;50.914;13.858;2024-01-25T01:36:09;23.17;;;4.22;;
36189;SDS011;22232;50.914;13.858;2024-01-25T01:38:36;26.55;;;4.28;;
36189;SDS011;22232;50.914;13.858;2024-01-25T01:41:04;15.52;;;3.78;;
36189;SDS011;22232;50.914;13.858;2024-01-25T01:43:32;18.58;;;3.35;;
36189;SDS011;22232;50.914;13.858;2024-01-25T01:46:00;22.65;;;3.53;;
36189;SDS011;22232;50.914;13.858;2024-01-25T01:48:35;18.30;;;3.83;;
36189;SDS011;22232;50.914;13.858;2024-01-25T01:51:09;19.75;;;3.38;;
36189;SDS011;22232;50.914;13.858;2024-01-25T01:53:37;22.05;;;4.70;;
36189;SDS011;22232;50.914;13.858;2024-01-25T01:56:05;24.83;;;3.92;;
36189;SDS011;22232;50.914;13.858;2024-01-25T01:58:33;22.40;;;3.65;;
36189;SDS011;22232;50.914;13.858;2024-01-25T02:01:01;23.08;;;3.78;;
36189;SDS011;22232;50.914;13.858;2024-01-25T02:03:30;26.80;;;4.38;;
36189;SDS011;22232;50.914;13.858;2024-01-25T02:05:58;24.48;;;4.13;;
36189;SDS011;22232;50.914;13.858;2024-01-25T02:08:30;21.23;;;3.90;;
36189;SDS011;22232;50.914;13.858;2024-01-25T02:10:57;23.63;;;4.00;;
36189;SDS011;22232;50.914;13.858;2024-01-25T02:13:25;27.05;;;3.92;;
36189;SDS011;22232;50.914;13.858;2024-01-25T02:15:53;20.15;;;4.13;;
36189;SDS011;22232;50.914;13.858;2024-01-25T02:18:21;19.13;;;4.22;;
36189;SDS011;22232;50.914;13.858;2024-01-25T02:20:49;20.33;;;4.03;;
36189;SDS011;22232;50.914;13.858;2024-01-25T02:23:16;24.58;;;4.25;;
36189;SDS011;22232;50.914;13.858;2024-01-25T02:25:44;27.63;;;4.05;;
36189;SDS011;22232;50.914;13.858;2024-01-25T02:28:12;19.65;;;4.07;;
36189;SDS011;22232;50.914;13.858;2024-01-25T02:30:40;17.95;;;4.05;;
36189;SDS011;22232;50.914;13.858;2024-01-25T02:33:07;16.45;;;3.88;;
36189;SDS011;22232;50.914;13.858;2024-01-25T02:35:36;27.98;;;4.93;;
36189;SDS011;22232;50.914;13.858;2024-01-25T02:38:04;24.02;;;4.20;;
36189;SDS011;22232;50.914;13.858;2024-01-25T02:40:32;24.83;;;4.65;;
36189;SDS011;22232;50.914;13.858;2024-01-25T02:42:59;24.73;;;4.35;;
36189;SDS011;22232;50.914;13.858;2024-01-25T02:45:27;19.40;;;3.83;;
36189;SDS011;22232;50.914;13.858;2024-01-25T02:47:55;29.23;;;4.63;;
36189;SDS011;22232;50.914;13.858;2024-01-25T02:50:26;22.17;;;4.30;;
36189;SDS011;22232;50.914;13.858;2024-01-25T02:52:53;17.75;;;4.10;;
36189;SDS011;22232;50.914;13.858;2024-01-25T02:55:21;31.27;;;4.82;;
36189;SDS011;22232;50.914;13.858;2024-01-25T02:57:49;23.33;;;4.93;;
36189;SDS011;22232;50.914;13.858;2024-01-25T03:00:17;21.55;;;4.32;;
36189;SDS011;22232;50.914;13.858;2024-01-25T03:02:44;19.40;;;4.30;;
36189;SDS011;22232;50.914;13.858;2024-01-25T03:05:12;28.55;;;4.20;;
36189;SDS011;22232;50.914;13.858;2024-01-25T03:07:40;28.42;;;5.22;;
36189;SDS011;22232;50.914;13.858;2024-01-25T03:10:08;23.70;;;4.28;;
36189;SDS011;22232;50.914;13.858;2024-01-25T03:12:36;19.73;;;3.80;;
36189;SDS011;22232;50.914;13.858;2024-01-25T03:15:03;19.77;;;4.20;;
36189;SDS011;22232;50.914;13.858;2024-01-25T03:17:33;28.30;;;4.20;;
36189;SDS011;22232;50.914;13.858;2024-01-25T03:20:00;24.63;;;4.53;;
36189;SDS011;22232;50.914;13.858;2024-01-25T03:22:29;26.80;;;4.20;;
36189;SDS011;22232;50.914;13.858;2024-01-25T03:24:56;24.30;;;3.92;;
36189;SDS011;22232;50.914;13.858;2024-01-25T03:27:24;16.85;;;3.53;;
36189;SDS011;22232;50.914;13.858;2024-01-25T03:29:52;20.92;;;3.95;;
36189;SDS011;22232;50.914;13.858;2024-01-25T03:32:19;26.02;;;5.07;;
36189;SDS011;22232;50.914;13.858;2024-01-25T03:34:47;23.05;;;4.55;;
36189;SDS011;22232;50.914;13.858;2024-01-25T03:37:15;29.65;;;4.90;;
36189;SDS011;22232;50.914;13.858;2024-01-25T03:39:42;24.80;;;5.20;;
36189;SDS011;22232;50.914;13.858;2024-01-25T03:42:10;20.92;;;4.70;;
36189;SDS011;22232;50.914;13.858;2024-01-25T03:44:38;25.23;;;4.38;;
36189;SDS011;22232;50.914;13.858;2024-01-25T03:47:05;26.48;;;4.07;;
36189;SDS011;22232;50.914;13.858;2024-01-25T03:49:33;24.15;;;4.50;;
36189;SDS011;22232;50.914;13.858;2024-01-25T03:52:01;26.92;;;4.90;;
36189;SDS011;22232;50.914;13.858;2024-01-25T03:54:28;17.90;;;3.72;;
36189;SDS011;22232;50.914;13.858;2024-01-25T03:56:56;23.02;;;4.75;;
36189;SDS011;22232;50.914;13.858;2024-01-25T03:59:24;27.98;;;4.75;;
36189;SDS011;22232;50.914;13.858;2024-01-25T04:01:52;23.33;;;4.38;;
36189;SDS011;22232;50.914;13.858;2024-01-25T04:04:20;23.30;;;3.90;;
36189;SDS011;22232;50.914;13.858;2024-01-25T04:06:48;19.98;;;3.38;;
36189;SDS011;22232;50.914;13.858;2024-01-25T04:09:15;26.25;;;4.35;;
36189;SDS011;22232;50.914;13.858;2024-01-25T04:11:43;18.95;;;4.15;;
36189;SDS011;22232;50.914;13.858;2024-01-25T04:14:10;18.85;;;3.67;;
36189;SDS011;22232;50.914;13.858;2024-01-25T04:16:38;18.58;;;4.22;;
36189;SDS011;22232;50.914;13.858;2024-01-25T04:19:06;22.02;;;4.85;;
36189;SDS011;22232;50.914;13.858;2024-01-25T04:21:36;25.95;;;4.55;;
36189;SDS011;22232;50.914;13.858;2024-01-25T04:24:05;22.55;;;4.90;;
36189;SDS011;22232;50.914;13.858;2024-01-25T04:26:32;28.10;;;4.53;;
36189;SDS011;22232;50.914;13.858;2024-01-25T04:29:00;20.33;;;3.97;;
36189;SDS011;22232;50.914;13.858;2024-01-25T04:31:27;25.05;;;3.92;;
36189;SDS011;22232;50.914;13.858;2024-01-25T04:33:55;23.35;;;4.25;;
36189;SDS011;22232;50.914;13.858;2024-01-25T04:36:23;27.30;;;4.15;;
36189;SDS011;22232;50.914;13.858;2024-01-25T04:38:50;15.23;;;3.80;;
36189;SDS011;22232;50.914;13.858;2024-01-25T04:41:18;24.38;;;4.53;;
36189;SDS011;22232;50.914;13.858;2024-01-25T04:43:46;21.65;;;4.43;;
36189;SDS011;22232;50.914;13.858;2024-01-25T04:46:14;21.38;;;4.28;;
36189;SDS011;22232;50.914;13.858;2024-01-25T04:48:41;30.00;;;5.20;;
36189;SDS011;22232;50.914;13.858;2024-01-25T04:51:14;24.55;;;3.63;;
36189;SDS011;22232;50.914;13.858;2024-01-25T04:53:46;26.05;;;4.85;;
36189;SDS011;22232;50.914;13.858;2024-01-25T04:56:14;24.05;;;4.32;;
36189;SDS011;22232;50.914;13.858;2024-01-25T04:58:41;26.80;;;4.25;;
36189;SDS011;22232;50.914;13.858;2024-01-25T05:01:09;23.30;;;3.58;;
36189;SDS011;22232;50.914;13.858;2024-01-25T05:03:37;22.77;;;4.22;;
36189;SDS011;22232;50.914;13.858;2024-01-25T05:06:05;21.88;;;4.72;;
36189;SDS011;22232;50.914;13.858;2024-01-25T05:08:33;26.70;;;4.53;;
36189;SDS011;22232;50.914;13.858;2024-01-25T05:11:00;23.23;;;4.20;;
36189;SDS011;22232;50.914;13.858;2024-01-25T05:13:28;19.92;;;4.20;;
36189;SDS011;22232;50.914;13.858;2024-01-25T05:15:56;28.25;;;4.72;;
36189;SDS011;22232;50.914;13.858;2024-01-25T05:18:23;20.88;;;3.65;;
36189;SDS011;22232;50.914;13.858;2024-01-25T05:20:51;27.00;;;5.05;;
36189;SDS011;22232;50.914;13.858;2024-01-25T05:23:19;26.52;;;4.60;;
36189;SDS011;22232;50.914;13.858;2024-01-25T05:25:46;18.23;;;3.85;;
36189;SDS011;22232;50.914;13.858;2024-01-25T05:28:14;23.88;;;4.10;;
36189;SDS011;22232;50.914;13.858;2024-01-25T05:30:42;19.00;;;4.43;;
36189;SDS011;22232;50.914;13.858;2024-01-25T05:33:09;29.33;;;4.93;;
36189;SDS011;22232;50.914;13.858;2024-01-25T05:35:37;28.98;;;6.15;;
36189;SDS011;22232;50.914;13.858;2024-01-25T05:38:05;22.73;;;4.50;;
36189;SDS011;22232;50.914;13.858;2024-01-25T05:40:33;29.13;;;5.47;;
36189;SDS011;22232;50.914;13.858;2024-01-25T05:43:01;18.65;;;3.65;;
36189;SDS011;22232;50.914;13.858;2024-01-25T05:45:30;22.52;;;4.57;;
36189;SDS011;22232;50.914;13.858;2024-01-25T05:47:58;20.88;;;3.60;;
36189;SDS011;22232;50.914;13.858;2024-01-25T05:50:26;21.20;;;4.07;;
36189;SDS011;22232;50.914;13.858;2024-01-25T05:52:54;17.80;;;3.88;;
36189;SDS011;22232;50.914;13.858;2024-01-25T05:55:21;27.00;;;4.03;;
36189;SDS011;22232;50.914;13.858;2024-01-25T05:57:49;27.55;;;4.82;;
36189;SDS011;22232;50.914;13.858;2024-01-25T06:00:17;23.73;;;4.10;;
36189;SDS011;22232;50.914;13.858;2024-01-25T06:02:47;25.55;;;3.90;;
36189;SDS011;22232;50.914;13.858;2024-01-25T06:05:16;22.38;;;4.43;;
36189;SDS011;22232;50.914;13.858;2024-01-25T06:07:45;24.63;;;3.75;;
36189;SDS011;22232;50.914;13.858;2024-01-25T06:10:13;23.17;;;4.32;;
36189;SDS011;22232;50.914;13.858;2024-01-25T06:12:41;24.75;;;4.03;;
36189;SDS011;22232;50.914;13.858;2024-01-25T06:15:09;19.75;;;4.55;;
36189;SDS011;22232;50.914;13.858;2024-01-25T06:17:37;20.45;;;3.38;;
36189;SDS011;22232;50.914;13.858;2024-01-25T06:20:05;22.67;;;4.15;;
36189;SDS011;22232;50.914;13.858;2024-01-25T06:22:33;19.30;;;3.70;;
36189;SDS011;22232;50.914;13.858;2024-01-25T06:25:01;25.83;;;3.92;;
36189;SDS011;22232;50.914;13.858;2024-01-25T06:27:33;23.73;;;4.80;;
36189;SDS011;22232;50.914;13.858;2024-01-25T06:30:02;25.15;;;3.50;;
36189;SDS011;22232;50.914;13.858;2024-01-25T06:32:30;20.30;;;4.18;;
36189;SDS011;22232;50.914;13.858;2024-01-25T06:34:58;23.02;;;4.20;;
36189;SDS011;22232;50.914;13.858;2024-01-25T06:37:26;22.85;;;3.75;;
36189;SDS011;22232;50.914;13.858;2024-01-25T06:39:54;25.17;;;4.05;;
36189;SDS011;22232;50.914;13.858;2024-01-25T06:42:22;19.90;;;3.65;;
36189;SDS011;22232;50.914;13.858;2024-01-25T06:44:50;22.67;;;3.90;;
36189;SDS011;22232;50.914;13.858;2024-01-25T06:47:18;26.92;;;4.32;;
36189;SDS011;22232;50.914;13.858;2024-01-25T06:49:48;22.17;;;4.57;;
36189;SDS011;22232;50.914;13.858;2024-01-25T06:52:19;21.98;;;3.50;;
36189;SDS011;22232;50.914;13.858;2024-01-25T06:54:47;16.25;;;3.17;;
36189;SDS011;22232;50.914;13.858;2024-01-25T06:57:14;21.67;;;4.03;;
36189;SDS011;22232;50.914;13.858;2024-01-25T06:59:42;20.45;;;3.67;;
36189;SDS011;22232;50.914;13.858;2024-01-25T07:02:10;19.42;;;3.63;;
36189;SDS011;22232;50.914;13.858;2024-01-25T07:04:39;21.33;;;4.07;;
36189;SDS011;22232;50.914;13.858;2024-01-25T07:07:08;17.33;;;3.60;;
36189;SDS011;22232;50.914;13.858;2024-01-25T07:09:36;15.40;;;3.40;;
36189;SDS011;22232;50.914;13.858;2024-01-25T07:12:04;21.23;;;3.97;;
36189;SDS011;22232;50.914;13.858;2024-01-25T07:14:32;24.02;;;3.85;;
36189;SDS011;22232;50.914;13.858;2024-01-25T07:17:00;20.95;;;3.25;;
36189;SDS011;22232;50.914;13.858;2024-01-25T07:19:28;20.70;;;3.28;;
36189;SDS011;22232;50.914;13.858;2024-01-25T07:21:56;17.38;;;3.72;;
36189;SDS011;22232;50.914;13.858;2024-01-25T07:24:23;18.30;;;3.67;;
36189;SDS011;22232;50.914;13.858;2024-01-25T07:26:53;23.52;;;4.15;;
36189;SDS011;22232;50.914;13.858;2024-01-25T07:29:22;18.17;;;3.90;;
36189;SDS011;22232;50.914;13.858;2024-01-25T07:31:50;15.20;;;3.72;;
36189;SDS011;22232;50.914;13.858;2024-01-25T07:34:18;22.55;;;3.70;;
36189;SDS011;22232;50.914;13.858;2024-01-25T07:40:52;16.55;;;3.90;;
36189;SDS011;22232;50.914;13.858;2024-01-25T07:43:21;27.08;;;3.90;;
36189;SDS011;22232;50.914;13.858;2024-01-25T07:45:49;22.15;;;3.72;;
36189;SDS011;22232;50.914;13.858;2024-01-25T07:48:20;16.23;;;3.55;;
36189;SDS011;22232;50.914;13.858;2024-01-25T07:50:48;20.25;;;4.03;;
36189;SDS011;22232;50.914;13.858;2024-01-25T07:53:15;19.33;;;3.97;;
36189;SDS011;22232;50.914;13.858;2024-01-25T07:55:43;20.60;;;3.78;;
36189;SDS011;22232;50.914;13.858;2024-01-25T07:58:11;17.23;;;3.53;;
36189;SDS011;22232;50.914;13.858;2024-01-25T08:00:38;13.75;;;3.10;;
36189;SDS011;22232;50.914;13.858;2024-01-25T08:03:06;24.23;;;4.35;;
36189;SDS011;22232;50.914;13.858;2024-01-25T08:05:34;27.67;;;4.15;;
36189;SDS011;22232;50.914;13.858;2024-01-25T08:08:13;17.77;;;3.60;;
36189;SDS011;22232;50.914;13.858;2024-01-25T08:10:41;22.52;;;3.90;;
36189;SDS011;22232;50.914;13.858;2024-01-25T08:13:10;15.45;;;3.65;;
36189;SDS011;22232;50.914;13.858;2024-01-25T08:15:38;24.98;;;4.03;;
36189;SDS011;22232;50.914;13.858;2024-01-25T08:18:06;19.05;;;3.47;;
36189;SDS011;22232;50.914;13.858;2024-01-25T08:20:35;18.95;;;3.47;;
36189;SDS011;22232;50.914;13.858;2024-01-25T08:23:04;14.70;;;3.25;;
36189;SDS011;22232;50.914;13.858;2024-01-25T08:25:35;15.63;;;4.20;;
36189;SDS011;22232;50.914;13.858;2024-01-25T08:28:03;20.42;;;3.80;;
36189;SDS011;22232;50.914;13.858;2024-01-25T08:30:31;22.58;;;3.80;;
36189;SDS011;22232;50.914;13.858;2024-01-25T08:32:58;22.17;;;4.18;;
36189;SDS011;22232;50.914;13.858;2024-01-25T08:35:26;25.25;;;4.18;;
36189;SDS011;22232;50.914;13.858;2024-01-25T08:37:54;17.88;;;3.90;;
36189;SDS011;22232;50.914;13.858;2024-01-25T08:40:22;21.65;;;3.60;;
36189;SDS011;22232;50.914;13.858;2024-01-25T08:42:52;22.10;;;3.97;;
36189;SDS011;22232;50.914;13.858;2024-01-25T08:45:20;18.58;;;4.13;;
36189;SDS011;22232;50.914;13.858;2024-01-25T08:47:48;16.67;;;3.72;;
36189;SDS011;22232;50.914;13.858;2024-01-25T08:50:16;26.70;;;4.63;;
36189;SDS011;22232;50.914;13.858;2024-01-25T08:52:45;21.58;;;3.97;;
36189;SDS011;22232;50.914;13.858;2024-01-25T08:55:12;20.60;;;4.75;;
36189;SDS011;22232;50.914;13.858;2024-01-25T08:57:41;21.02;;;3.92;;
36189;SDS011;22232;50.914;13.858;2024-01-25T09:00:08;24.73;;;4.13;;
36189;SDS011;22232;50.914;13.858;2024-01-25T09:02:39;25.23;;;3.90;;
36189;SDS011;22232;50.914;13.858;2024-01-25T09:05:07;19.90;;;3.30;;
36189;SDS011;22232;50.914;13.858;2024-01-25T09:07:36;22.52;;;4.13;;
36189;SDS011;22232;50.914;13.858;2024-01-25T09:10:05;23.30;;;3.97;;
36189;SDS011;22232;50.914;13.858;2024-01-25T09:12:34;15.88;;;3.25;;
36189;SDS011;22232;50.914;13.858;2024-01-25T09:15:02;19.33;;;3.85;;
36189;SDS011;22232;50.914;13.858;2024-01-25T09:17:30;22.65;;;3.72;;
36189;SDS011;22232;50.914;13.858;2024-01-25T09:19:58;22.77;;;3.35;;
36189;SDS011;22232;50.914;13.858;2024-01-25T09:22:27;19.52;;;3.15;;
36189;SDS011;22232;50.914;13.858;2024-01-25T09:24:55;21.83;;;4.60;;
36189;SDS011;22232;50.914;13.858;2024-01-25T09:27:23;19.90;;;3.25;;
36189;SDS011;22232;50.914;13.858;2024-01-25T09:29:50;18.35;;;3.30;;
36189;SDS011;22232;50.914;13.858;2024-01-25T09:32:19;22.55;;;3.90;;
36189;SDS011;22232;50.914;13.858;2024-01-25T09:34:48;16.98;;;3.15;;
36189;SDS011;22232;50.914;13.858;2024-01-25T09:37:16;23.90;;;4.10;;
36189;SDS011;22232;50.914;13.858;2024-01-25T09:39:45;17.48;;;3.20;;
36189;SDS011;22232;50.914;13.858;2024-01-25T09:42:12;15.68;;;3.95;;
36189;SDS011;22232;50.914;13.858;2024-01-25T09:44:40;20.30;;;3.55;;
36189;SDS011;22232;50.914;13.858;2024-01-25T09:47:10;16.95;;;3.53;;
36189;SDS011;22232;50.914;13.858;2024-01-25T09:49:39;17.40;;;3.25;;
36189;SDS011;22232;50.914;13.858;2024-01-25T09:52:08;14.32;;;3.08;;
36189;SDS011;22232;50.914;13.858;2024-01-25T09:54:40;13.80;;;3.08;;
36189;SDS011;22232;50.914;13.858;2024-01-25T09:57:12;13.88;;;3.00;;
36189;SDS011;22232;50.914;13.858;2024-01-25T09:59:45;11.65;;;3.33;;
36189;SDS011;22232;50.914;13.858;2024-01-25T10:02:12;17.65;;;3.53;;
36189;SDS011;22232;50.914;13.858;2024-01-25T10:04:40;16.40;;;3.40;;
36189;SDS011;22232;50.914;13.858;2024-01-25T10:07:09;18.95;;;3.28;;
36189;SDS011;22232;50.914;13.858;2024-01-25T10:09:40;23.88;;;3.08;;
36189;SDS011;22232;50.914;13.858;2024-01-25T10:12:08;16.08;;;3.33;;
36189;SDS011;22232;50.914;13.858;2024-01-25T10:14:45;19.63;;;3.35;;
36189;SDS011;22232;50.914;13.858;2024-01-25T10:17:12;18.85;;;3.25;;
36189;SDS011;22232;50.914;13.858;2024-01-25T10:19:44;20.27;;;3.80;;
36189;SDS011;22232;50.914;13.858;2024-01-25T10:22:13;15.02;;;3.58;;
36189;SDS011;22232;50.914;13.858;2024-01-25T10:24:42;24.23;;;3.42;;
36189;SDS011;22232;50.914;13.858;2024-01-25T10:27:10;23.38;;;4.10;;
36189;SDS011;22232;50.914;13.858;2024-01-25T10:29:39;18.02;;;3.50;;
36189;SDS011;22232;50.914;13.858;2024-01-25T10:32:10;12.80;;;2.63;;
36189;SDS011;22232;50.914;13.858;2024-01-25T10:34:39;20.15;;;2.88;;
36189;SDS011;22232;50.914;13.858;2024-01-25T10:37:07;16.13;;;3.28;;
36189;SDS011;22232;50.914;13.858;2024-01-25T10:39:35;10.80;;;2.78;;
36189;SDS011;22232;50.914;13.858;2024-01-25T10:42:04;18.40;;;2.80;;
36189;SDS011;22232;50.914;13.858;2024-01-25T10:44:32;12.68;;;2.97;;
36189;SDS011;22232;50.914;13.858;2024-01-25T10:47:00;15.35;;;3.08;;
36189;SDS011;22232;50.914;13.858;2024-01-25T10:49:28;16.48;;;3.15;;
36189;SDS011;22232;50.914;13.858;2024-01-25T10:51:57;13.05;;;3.03;;
36189;SDS011;22232;50.914;13.858;2024-01-25T10:54:25;15.65;;;3.08;;
36189;SDS011;22232;50.914;13.858;2024-01-25T10:56:54;18.65;;;2.72;;
36189;SDS011;22232;50.914;13.858;2024-01-25T10:59:21;16.15;;;2.70;;
36189;SDS011;22232;50.914;13.858;2024-01-25T11:01:54;15.20;;;2.97;;
36189;SDS011;22232;50.914;13.858;2024-01-25T11:04:22;12.50;;;2.67;;
36189;SDS011;22232;50.914;13.858;2024-01-25T11:06:51;13.52;;;3.00;;
36189;SDS011;22232;50.914;13.858;2024-01-25T11:09:19;18.48;;;3.40;;
36189;SDS011;22232;50.914;13.858;2024-01-25T11:11:49;15.23;;;2.95;;
36189;SDS011;22232;50.914;13.858;2024-01-25T11:14:19;22.45;;;4.75;;
36189;SDS011;22232;50.914;13.858;2024-01-25T11:16:47;13.32;;;2.53;;
36189;SDS011;22232;50.914;13.858;2024-01-25T11:19:18;20.83;;;3.78;;
36189;SDS011;22232;50.914;13.858;2024-01-25T11:21:48;16.63;;;3.28;;
36189;SDS011;22232;50.914;13.858;2024-01-25T11:24:24;17.63;;;2.60;;
36189;SDS011;22232;50.914;13.858;2024-01-25T11:26:55;16.10;;;3.30;;
36189;SDS011;22232;50.914;13.858;2024-01-25T11:29:23;13.93;;;2.17;;
36189;SDS011;22232;50.914;13.858;2024-01-25T11:31:52;15.27;;;2.80;;
36189;SDS011;22232;50.914;13.858;2024-01-25T11:34:20;15.10;;;3.15;;
36189;SDS011;22232;50.914;13.858;2024-01-25T11:36:49;13.63;;;2.67;;
36189;SDS011;22232;50.914;13.858;2024-01-25T11:39:17;12.60;;;2.88;;
36189;SDS011;22232;50.914;13.858;2024-01-25T11:41:45;16.55;;;2.72;;
36189;SDS011;22232;50.914;13.858;2024-01-25T11:44:13;13.43;;;2.67;;
36189;SDS011;22232;50.914;13.858;2024-01-25T11:46:41;17.67;;;3.10;;
36189;SDS011;22232;50.914;13.858;2024-01-25T11:49:10;13.63;;;3.05;;
36189;SDS011;22232;50.914;13.858;2024-01-25T11:51:38;14.15;;;2.63;;
36189;SDS011;22232;50.914;13.858;2024-01-25T11:54:05;18.33;;;3.65;;
36189;SDS011;22232;50.914;13.858;2024-01-25T11:56:36;15.80;;;2.92;;
36189;SDS011;22232;50.914;13.858;2024-01-25T11:59:09;12.38;;;3.03;;
36189;SDS011;22232;50.914;13.858;2024-01-25T12:01:38;22.55;;;2.88;;
36189;SDS011;22232;50.914;13.858;2024-01-25T12:04:08;24.88;;;3.10;;
36189;SDS011;22232;50.914;13.858;2024-01-25T12:06:36;17.08;;;2.92;;
36189;SDS011;22232;50.914;13.858;2024-01-25T12:09:08;17.17;;;2.78;;
36189;SDS011;22232;50.914;13.858;2024-01-25T12:11:38;17.23;;;3.67;;
36189;SDS011;22232;50.914;13.858;2024-01-25T12:14:09;13.25;;;3.03;;
36189;SDS011;22232;50.914;13.858;2024-01-25T12:16:37;14.65;;;4.80;;
36189;SDS011;22232;50.914;13.858;2024-01-25T12:19:06;16.40;;;2.63;;
36189;SDS011;22232;50.914;13.858;2024-01-25T12:21:34;12.35;;;2.80;;
36189;SDS011;22232;50.914;13.858;2024-01-25T12:24:05;20.65;;;3.00;;
36189;SDS011;22232;50.914;13.858;2024-01-25T12:26:35;11.40;;;2.80;;
36189;SDS011;22232;50.914;13.858;2024-01-25T12:29:03;8.07;;;2.38;;
36189;SDS011;22232;50.914;13.858;2024-01-25T12:31:32;12.65;;;3.78;;
36189;SDS011;22232;50.914;13.858;2024-01-25T12:34:00;13.30;;;2.63;;
36189;SDS011;22232;50.914;13.858;2024-01-25T12:36:29;16.15;;;2.97;;
36189;SDS011;22232;50.914;13.858;2024-01-25T12:38:57;13.65;;;2.88;;
36189;SDS011;22232;50.914;13.858;2024-01-25T12:41:26;10.98;;;2.47;;
36189;SDS011;22232;50.914;13.858;2024-01-25T12:43:53;15.60;;;2.92;;
36189;SDS011;22232;50.914;13.858;2024-01-25T12:46:21;10.35;;;2.72;;
36189;SDS011;22232;50.914;13.858;2024-01-25T12:48:55;11.63;;;2.30;;
36189;SDS011;22232;50.914;13.858;2024-01-25T12:51:25;14.63;;;2.88;;
36189;SDS011;22232;50.914;13.858;2024-01-25T12:53:53;17.75;;;2.78;;
36189;SDS011;22232;50.914;13.858;2024-01-25T12:56:21;11.73;;;2.65;;
36189;SDS011;22232;50.914;13.858;2024-01-25T12:58:49;17.00;;;2.88;;
36189;SDS011;22232;50.914;13.858;2024-01-25T13:01:17;14.18;;;2.28;;
36189;SDS011;22232;50.914;13.858;2024-01-25T13:03:45;14.02;;;2.58;;
36189;SDS011;22232;50.914;13.858;2024-01-25T13:06:15;19.83;;;3.13;;
36189;SDS011;22232;50.914;13.858;2024-01-25T13:08:43;11.52;;;2.80;;
36189;SDS011;22232;50.914;13.858;2024-01-25T13:11:11;14.52;;;3.30;;
36189;SDS011;22232;50.914;13.858;2024-01-25T13:13:39;15.10;;;2.90;;
36189;SDS011;22232;50.914;13.858;2024-01-25T13:16:07;14.13;;;3.00;;
36189;SDS011;22232;50.914;13.858;2024-01-25T13:18:35;16.05;;;3.17;;
36189;SDS011;22232;50.914;13.858;2024-01-25T13:21:02;9.93;;;2.72;;
36189;SDS011;22232;50.914;13.858;2024-01-25T13:23:30;14.70;;;2.97;;
36189;SDS011;22232;50.914;13.858;2024-01-25T13:25:57;12.07;;;2.22;;
36189;SDS011;22232;50.914;13.858;2024-01-25T13:28:25;12.90;;;2.70;;
36189;SDS011;22232;50.914;13.858;2024-01-25T13:30:53;11.40;;;2.30;;
36189;SDS011;22232;50.914;13.858;2024-01-25T13:33:21;17.55;;;3.50;;
36189;SDS011;22232;50.914;13.858;2024-01-25T13:35:49;14.60;;;3.17;;
36189;SDS011;22232;50.914;13.858;2024-01-25T13:38:17;18.40;;;2.80;;
36189;SDS011;22232;50.914;13.858;2024-01-25T13:40:44;18.95;;;2.42;;
36189;SDS011;22232;50.914;13.858;2024-01-25T13:43:12;20.85;;;2.90;;
36189;SDS011;22232;50.914;13.858;2024-01-25T13:45:40;11.00;;;2.55;;
36189;SDS011;22232;50.914;13.858;2024-01-25T13:48:08;12.95;;;2.95;;
36189;SDS011;22232;50.914;13.858;2024-01-25T13:50:35;18.13;;;3.30;;
36189;SDS011;22232;50.914;13.858;2024-01-25T13:53:03;14.52;;;2.35;;
36189;SDS011;22232;50.914;13.858;2024-01-25T13:55:30;12.07;;;2.72;;
36189;SDS011;22232;50.914;13.858;2024-01-25T13:57:58;7.95;;;2.10;;
36189;SDS011;22232;50.914;13.858;2024-01-25T14:00:27;14.13;;;2.47;;
36189;SDS011;22232;50.914;13.858;2024-01-25T14:02:55;10.13;;;2.10;;
36189;SDS011;22232;50.914;13.858;2024-01-25T14:05:23;14.40;;;2.20;;
36189;SDS011;22232;50.914;13.858;2024-01-25T14:07:50;13.30;;;2.75;;
36189;SDS011;22232;50.914;13.858;2024-01-25T14:10:18;17.13;;;2.55;;
36189;SDS011;22232;50.914;13.858;2024-01-25T14:12:47;9.27;;;2.38;;
36189;SDS011;22232;50.914;13.858;2024-01-25T14:15:15;13.38;;;3.08;;
36189;SDS011;22232;50.914;13.858;2024-01-25T14:17:42;11.48;;;2.70;;
36189;SDS011;22232;50.914;13.858;2024-01-25T14:20:10;10.95;;;2.42;;
36189;SDS011;22232;50.914;13.858;2024-01-25T14:22:39;9.88;;;2.42;;
36189;SDS011;22232;50.914;13.858;2024-01-25T14:25:07;12.00;;;2.50;;
36189;SDS011;22232;50.914;13.858;2024-01-25T14:27:35;11.00;;;2.33;;
36189;SDS011;22232;50.914;13.858;2024-01-25T14:30:03;13.32;;;2.90;;
36189;SDS011;22232;50.914;13.858;2024-01-25T14:32:31;10.23;;;2.22;;